createdAt,value
2022-12-12T00:00:43.422Z,97582.81
2022-12-12T00:03:10.625Z,97580.69
2022-12-12T00:05:37.849Z,97585.03
2022-12-12T00:08:04.906Z,97587.94
2022-12-12T00:10:32.149Z,97581.97
2022-12-12T00:12:59.109Z,97584.19
2022-12-12T00:15:25.821Z,97582.41
2022-12-12T00:17:52.491Z,97585.94
2022-12-12T00:20:19.297Z,97588.88
2022-12-12T00:22:46.394Z,97584.00
2022-12-12T00:25:13.670Z,97587.22
2022-12-12T00:27:40.564Z,97587.84
2022-12-12T00:30:07.769Z,97587.25
2022-12-12T00:32:34.860Z,97588.34
2022-12-12T00:35:01.613Z,97586.56
2022-12-12T00:37:28.280Z,97593.66
2022-12-12T00:39:54.957Z,97591.22
2022-12-12T00:42:21.620Z,97596.88
2022-12-12T00:44:48.261Z,97596.53
2022-12-12T00:47:14.895Z,97602.06
2022-12-12T00:49:41.535Z,97604.16
2022-12-12T00:52:08.154Z,97601.88
2022-12-12T00:54:34.800Z,97606.22
2022-12-12T00:57:01.500Z,97605.75
2022-12-12T00:59:28.157Z,97611.06
2022-12-12T01:01:54.855Z,97607.16
2022-12-12T01:04:21.534Z,97603.94
2022-12-12T01:06:48.180Z,97605.69
2022-12-12T01:09:14.868Z,97608.47
2022-12-12T01:11:41.528Z,97613.00
2022-12-12T01:14:08.270Z,97612.19
2022-12-12T01:16:34.987Z,97606.38
2022-12-12T01:19:01.769Z,97607.31
2022-12-12T01:21:28.443Z,97619.91
2022-12-12T01:23:55.286Z,97617.31
2022-12-12T01:26:24.850Z,97616.22
2022-12-12T01:28:52.417Z,97614.91
2022-12-12T01:31:19.269Z,97612.00
2022-12-12T01:33:46.528Z,97613.09
2022-12-12T01:36:16.701Z,97616.88
2022-12-12T01:38:48.196Z,97623.34
2022-12-12T01:41:16.246Z,97617.16
2022-12-12T01:43:43.075Z,97613.25
2022-12-12T01:46:33.421Z,97614.44
2022-12-12T01:49:17.799Z,97616.69
2022-12-12T01:51:45.309Z,97623.34
2022-12-12T01:54:16.777Z,97622.34
2022-12-12T01:56:45.125Z,97613.34
2022-12-12T01:59:14.031Z,97619.13
2022-12-12T02:01:41.561Z,97621.88
2022-12-12T02:04:10.462Z,97618.75
2022-12-12T02:06:38.325Z,97621.34
2022-12-12T02:09:09.707Z,97622.06
2022-12-12T02:11:43.300Z,97629.28
2022-12-12T02:14:10.303Z,97625.22
2022-12-12T02:17:12.076Z,97641.72
2022-12-12T02:19:49.415Z,97632.22
2022-12-12T02:22:55.928Z,97633.97
2022-12-12T02:25:53.230Z,97633.22
2022-12-12T02:28:19.898Z,97620.47
2022-12-12T02:31:21.673Z,97626.41
2022-12-12T02:34:14.482Z,97624.16
2022-12-12T02:37:03.215Z,97626.13
2022-12-12T02:39:47.836Z,97621.13
2022-12-12T02:42:30.881Z,97618.38
2022-12-12T02:45:09.889Z,97623.81
2022-12-12T02:47:44.146Z,97629.19
2022-12-12T02:50:18.550Z,97628.38
2022-12-12T02:52:47.818Z,97631.78
2022-12-12T02:55:16.860Z,97628.88
2022-12-12T02:57:43.684Z,97632.09
2022-12-12T03:00:13.795Z,97625.59
2022-12-12T03:02:41.422Z,97633.38
2022-12-12T03:05:44.914Z,97631.91
2022-12-12T03:08:36.566Z,97631.91
2022-12-12T03:11:11.492Z,97625.09
2022-12-12T03:13:57.777Z,97632.50
2022-12-12T03:16:39.768Z,97630.44
2022-12-12T03:19:18.656Z,97631.88
2022-12-12T03:21:55.457Z,97636.41
2022-12-12T03:24:34.716Z,97640.00
2022-12-12T03:27:10.563Z,97632.69
2022-12-12T03:29:44.658Z,97639.31
2022-12-12T03:32:17.268Z,97638.34
2022-12-12T03:34:50.150Z,97640.78
2022-12-12T03:37:21.369Z,97637.56
2022-12-12T03:39:55.068Z,97640.44
2022-12-12T03:42:27.931Z,97638.81
2022-12-12T03:45:02.183Z,97637.56
2022-12-12T03:47:38.983Z,97636.88
2022-12-12T03:50:14.098Z,97633.94
2022-12-12T03:52:48.007Z,97634.47
2022-12-12T03:55:24.628Z,97634.81
2022-12-12T03:58:08.649Z,97639.78
2022-12-12T04:00:37.537Z,97635.09
2022-12-12T04:03:19.177Z,97639.16
2022-12-12T04:06:18.060Z,97632.66
2022-12-12T04:09:06.141Z,97638.00
2022-12-12T04:11:55.719Z,97636.88
2022-12-12T04:14:52.976Z,97636.22
2022-12-12T04:17:25.685Z,97640.75
2022-12-12T04:20:16.231Z,97639.47
2022-12-12T04:23:08.154Z,97653.69
2022-12-12T04:26:02.330Z,97643.97
2022-12-12T04:28:32.174Z,97648.34
2022-12-12T04:31:04.992Z,97653.84
2022-12-12T04:33:41.983Z,97655.16
2022-12-12T04:36:12.154Z,97656.69
2022-12-12T04:38:40.236Z,97658.75
2022-12-12T04:41:09.186Z,97659.94
2022-12-12T04:43:39.206Z,97656.28
2022-12-12T04:46:10.872Z,97648.66
2022-12-12T04:48:51.823Z,97649.63
2022-12-12T04:51:28.600Z,97651.84
2022-12-12T04:54:05.905Z,97656.56
2022-12-12T04:56:36.893Z,97648.66
2022-12-12T04:59:06.635Z,97654.81
2022-12-12T05:01:55.155Z,97653.94
2022-12-12T05:04:36.306Z,97658.59
2022-12-12T05:07:10.541Z,97659.28
2022-12-12T05:09:37.744Z,97651.50
2022-12-12T05:12:04.978Z,97655.56
2022-12-12T05:14:32.063Z,97657.63
2022-12-12T05:17:05.427Z,97664.13
2022-12-12T05:19:32.213Z,97661.06
2022-12-12T05:21:58.952Z,97657.78
2022-12-12T05:24:30.782Z,97660.22
2022-12-12T05:26:58.642Z,97661.16
2022-12-12T05:29:25.408Z,97659.81
2022-12-12T05:31:52.166Z,97662.72
2022-12-12T05:34:18.873Z,97661.31
2022-12-12T05:36:45.821Z,97659.81
2022-12-12T05:39:12.469Z,97664.03
2022-12-12T05:41:39.149Z,97655.69
2022-12-12T05:44:05.978Z,97659.81
2022-12-12T05:46:32.837Z,97673.66
2022-12-12T05:48:59.598Z,97669.59
2022-12-12T05:51:26.238Z,97668.31
2022-12-12T05:53:52.955Z,97663.28
2022-12-12T05:56:19.728Z,97658.59
2022-12-12T05:58:47.134Z,97672.53
2022-12-12T06:01:17.693Z,97667.00
2022-12-12T06:03:54.608Z,97674.56
2022-12-12T06:06:25.240Z,97678.69
2022-12-12T06:08:51.926Z,97675.75
2022-12-12T06:11:18.753Z,97683.38
2022-12-12T06:13:54.225Z,97687.59
2022-12-12T06:16:21.600Z,97697.56
2022-12-12T06:18:52.846Z,97708.22
2022-12-12T06:21:20.684Z,97707.34
2022-12-12T06:23:47.862Z,97709.88
2022-12-12T06:26:16.761Z,97710.28
2022-12-12T06:28:44.204Z,97702.53
2022-12-12T06:31:12.542Z,97714.31
2022-12-12T06:33:41.061Z,97705.59
2022-12-12T06:36:14.097Z,97706.22
2022-12-12T06:38:41.466Z,97709.59
2022-12-12T06:41:11.073Z,97713.34
2022-12-12T06:43:37.999Z,97718.84
2022-12-12T06:46:06.797Z,97711.81
2022-12-12T06:48:34.913Z,97716.38
2022-12-12T06:51:07.143Z,97718.47
2022-12-12T06:53:33.855Z,97725.34
2022-12-12T06:56:00.496Z,97726.59
2022-12-12T06:58:27.130Z,97734.69
2022-12-12T07:00:54.693Z,97734.47
2022-12-12T07:03:21.363Z,97737.22
2022-12-12T07:05:48.517Z,97733.16
2022-12-12T07:08:16.460Z,97736.03
2022-12-12T07:10:44.217Z,97737.84
2022-12-12T07:13:14.440Z,97744.91
2022-12-12T07:15:46.464Z,97741.28
2022-12-12T07:18:14.222Z,97740.84
2022-12-12T07:20:42.443Z,97739.97
2022-12-12T07:23:09.942Z,97743.56
2022-12-12T07:25:45.458Z,97747.28
2022-12-12T07:28:13.823Z,97738.69
2022-12-12T07:30:44.493Z,97746.16
2022-12-12T07:33:12.348Z,97750.00
2022-12-12T07:35:39.028Z,97747.41
2022-12-12T07:38:06.194Z,97758.13
2022-12-12T07:40:33.720Z,97760.78
2022-12-12T07:43:00.827Z,97767.97
2022-12-12T07:45:27.718Z,97766.38
2022-12-12T07:47:54.817Z,97774.72
2022-12-12T07:50:22.749Z,97772.56
2022-12-12T07:52:49.463Z,97771.47
2022-12-12T07:55:16.321Z,97778.84
2022-12-12T07:57:42.981Z,97777.28
2022-12-12T08:00:13.270Z,97781.56
2022-12-12T08:02:40.479Z,97775.75
2022-12-12T08:05:07.777Z,97780.06
2022-12-12T08:07:34.444Z,97788.03
2022-12-12T08:10:01.127Z,97783.72
2022-12-12T08:12:30.028Z,97793.44
2022-12-12T08:14:56.817Z,97801.13
2022-12-12T08:17:23.609Z,97800.78
2022-12-12T08:19:51.259Z,97805.03
2022-12-12T08:22:17.962Z,97808.25
2022-12-12T08:24:44.678Z,97802.88
2022-12-12T08:27:15.490Z,97808.50
2022-12-12T08:29:43.209Z,97810.47
2022-12-12T08:32:09.890Z,97815.66
2022-12-12T08:34:36.562Z,97819.69
2022-12-12T08:37:03.498Z,97819.03
2022-12-12T08:39:30.201Z,97822.91
2022-12-12T08:41:56.810Z,97824.69
2022-12-12T08:44:23.466Z,97834.25
2022-12-12T08:46:50.774Z,97836.38
2022-12-12T08:49:17.713Z,97831.38
2022-12-12T08:51:44.427Z,97843.50
2022-12-12T08:54:13.048Z,97843.66
2022-12-12T08:56:40.550Z,97838.31
2022-12-12T08:59:07.237Z,97834.09
2022-12-12T09:01:34.003Z,97827.13
2022-12-12T09:04:00.808Z,97836.34
2022-12-12T09:06:27.787Z,97840.25
2022-12-12T09:08:56.268Z,97845.75
2022-12-12T09:11:23.570Z,97845.91
2022-12-12T09:13:50.389Z,97857.44
2022-12-12T09:16:17.253Z,97852.13
2022-12-12T09:18:48.672Z,97854.56
2022-12-12T09:21:16.935Z,97855.34
2022-12-12T09:23:43.664Z,97853.44
2022-12-12T09:26:10.609Z,97862.34
2022-12-12T09:28:38.335Z,97865.72
2022-12-12T09:31:07.484Z,97861.16
2022-12-12T09:33:35.322Z,97866.50
2022-12-12T09:36:05.058Z,97864.53
2022-12-12T09:38:32.414Z,97865.34
2022-12-12T09:41:11.747Z,97859.38
2022-12-12T09:43:47.950Z,97858.72
2022-12-12T09:46:27.724Z,97864.66
2022-12-12T09:49:02.611Z,97860.59
2022-12-12T09:51:29.303Z,97867.47
2022-12-12T09:53:56.280Z,97861.28
2022-12-12T09:56:31.957Z,97869.53
2022-12-12T09:59:18.010Z,97875.53
2022-12-12T10:02:13.031Z,97883.03
2022-12-12T10:04:51.991Z,97888.41
2022-12-12T10:07:27.134Z,97891.19
2022-12-12T10:10:16.039Z,97883.38
2022-12-12T10:12:44.271Z,97878.81
2022-12-12T10:15:23.365Z,97888.72
2022-12-12T10:17:50.456Z,97882.66
2022-12-12T10:20:22.591Z,97888.47
2022-12-12T10:22:56.412Z,97888.13
2022-12-12T10:25:28.803Z,97883.25
2022-12-12T10:28:09.184Z,97884.53
2022-12-12T10:30:50.846Z,97894.94
2022-12-12T10:33:41.160Z,97892.97
2022-12-12T10:36:36.582Z,97896.03
2022-12-12T10:39:10.074Z,97892.00
2022-12-12T10:41:47.288Z,97888.25
2022-12-12T10:44:22.060Z,97896.22
2022-12-12T10:47:10.646Z,97892.13
2022-12-12T10:49:37.909Z,97895.22
2022-12-12T10:52:11.794Z,97893.63
2022-12-12T10:54:46.628Z,97900.56
2022-12-12T10:57:21.920Z,97890.34
2022-12-12T10:59:51.491Z,97900.06
2022-12-12T11:02:35.062Z,97905.56
2022-12-12T11:05:17.463Z,97903.59
2022-12-12T11:07:48.550Z,97902.34
2022-12-12T11:10:35.947Z,97903.66
2022-12-12T11:13:20.999Z,97895.69
2022-12-12T11:15:56.606Z,97894.56
2022-12-12T11:18:24.378Z,97899.09
2022-12-12T11:21:12.299Z,97889.66
2022-12-12T11:23:44.777Z,97895.88
2022-12-12T11:26:20.385Z,97892.16
2022-12-12T11:29:01.311Z,97889.25
2022-12-12T11:31:32.878Z,97887.78
2022-12-12T11:34:04.654Z,97888.09
2022-12-12T11:36:35.606Z,97893.31
2022-12-12T11:39:14.373Z,97900.75
2022-12-12T11:41:57.323Z,97900.13
2022-12-12T11:44:27.620Z,97901.41
2022-12-12T11:46:54.323Z,97894.25
2022-12-12T11:49:21.070Z,97890.06
2022-12-12T11:51:48.360Z,97893.44
2022-12-12T11:54:23.044Z,97893.25
2022-12-12T11:57:03.447Z,97891.47
2022-12-12T11:59:46.885Z,97888.38
2022-12-12T12:02:31.481Z,97889.38
2022-12-12T12:05:17.998Z,97880.34
2022-12-12T12:07:55.717Z,97883.63
2022-12-12T12:10:46.975Z,97883.63
2022-12-12T12:13:37.957Z,97886.06
2022-12-12T12:16:19.741Z,97885.63
2022-12-12T12:19:13.863Z,97885.31
2022-12-12T12:21:41.488Z,97889.34
2022-12-12T12:24:29.057Z,97892.44
2022-12-12T12:27:30.748Z,97893.13
2022-12-12T12:30:21.320Z,97890.19
2022-12-12T12:32:55.149Z,97889.06
2022-12-12T12:35:31.731Z,97894.88
2022-12-12T12:38:13.948Z,97895.06
2022-12-12T12:40:55.993Z,97882.72
2022-12-12T12:43:23.607Z,97884.03
2022-12-12T12:45:57.668Z,97886.47
2022-12-12T12:48:28.939Z,97885.00
2022-12-12T12:51:18.525Z,97888.88
2022-12-12T12:53:51.501Z,97887.25
2022-12-12T12:56:38.575Z,97889.38
2022-12-12T12:59:14.988Z,97888.88
2022-12-12T13:01:45.705Z,97885.66
2022-12-12T13:04:16.675Z,97893.63
2022-12-12T13:06:52.357Z,97887.13
2022-12-12T13:09:27.483Z,97891.00
2022-12-12T13:12:01.648Z,97899.63
2022-12-12T13:14:38.488Z,97901.25
2022-12-12T13:17:07.961Z,97908.41
2022-12-12T13:19:39.373Z,97913.44
2022-12-12T13:22:07.020Z,97908.38
2022-12-12T13:24:59.774Z,97910.34
2022-12-12T13:27:29.626Z,97909.38
2022-12-12T13:30:04.119Z,97913.91
2022-12-12T13:33:06.012Z,97907.88
2022-12-12T13:35:42.585Z,97913.56
2022-12-12T13:38:20.480Z,97916.47
2022-12-12T13:40:56.806Z,97911.97
2022-12-12T13:43:30.991Z,97905.88
2022-12-12T13:45:57.913Z,97905.47
2022-12-12T13:48:45.940Z,97907.91
2022-12-12T13:51:28.805Z,97908.69
2022-12-12T13:54:13.851Z,97901.09
2022-12-12T13:56:42.457Z,97920.31
2022-12-12T13:59:25.468Z,97912.47
2022-12-12T14:01:55.223Z,97915.31
2022-12-12T14:04:27.529Z,97921.00
2022-12-12T14:07:17.043Z,97921.22
2022-12-12T14:09:49.554Z,97924.25
2022-12-12T14:12:29.187Z,97922.19
2022-12-12T14:15:06.291Z,97931.25
2022-12-12T14:17:42.356Z,97938.09
2022-12-12T14:20:25.522Z,97946.06
2022-12-12T14:22:52.166Z,97944.59
2022-12-12T14:25:29.141Z,97945.81
2022-12-12T14:28:14.277Z,97945.94
2022-12-12T14:30:50.516Z,97946.56
2022-12-12T14:33:17.186Z,97949.09
2022-12-12T14:36:04.677Z,97943.63
2022-12-12T14:38:42.622Z,97953.91
2022-12-12T14:41:16.404Z,97954.41
2022-12-12T14:44:36.928Z,97959.06
2022-12-12T14:46:42.286Z,97953.81
2022-12-12T14:49:16.127Z,97952.94
2022-12-12T14:51:45.447Z,97959.41
2022-12-12T14:54:17.768Z,97964.06
2022-12-12T14:56:53.267Z,97963.44
2022-12-12T14:59:28.041Z,97968.88
2022-12-12T15:01:58.834Z,97961.53
2022-12-12T15:04:31.367Z,97961.97
2022-12-12T15:06:59.809Z,97964.91
2022-12-12T15:09:29.733Z,97968.13
2022-12-12T15:12:11.700Z,97967.63
2022-12-12T15:14:55.651Z,97965.47
2022-12-12T15:17:44.145Z,97969.50
2022-12-12T15:20:21.821Z,97975.28
2022-12-12T15:22:53.232Z,97974.44
2022-12-12T15:25:23.701Z,97973.25
2022-12-12T15:27:56.758Z,97982.44
2022-12-12T15:30:39.454Z,97979.00
2022-12-12T15:33:14.767Z,97973.38
2022-12-12T15:35:49.376Z,97968.31
2022-12-12T15:38:16.198Z,97972.47
2022-12-12T15:40:49.459Z,97987.72
2022-12-12T15:43:23.332Z,97987.06
2022-12-12T15:45:55.803Z,97982.16
2022-12-12T15:48:23.572Z,97988.34
2022-12-12T15:51:06.590Z,97991.50
2022-12-12T15:53:37.777Z,97993.16
2022-12-12T15:56:24.440Z,97996.53
2022-12-12T15:58:53.816Z,97990.34
2022-12-12T16:01:28.117Z,97994.53
2022-12-12T16:03:59.298Z,97990.34
2022-12-12T16:06:28.641Z,97988.69
2022-12-12T16:09:10.573Z,97992.81
2022-12-12T16:11:58.197Z,97993.34
2022-12-12T16:14:24.873Z,97995.78
2022-12-12T16:17:04.453Z,97997.06
2022-12-12T16:19:52.855Z,97999.78
2022-12-12T16:22:40.468Z,98007.88
2022-12-12T16:25:27.625Z,98011.13
2022-12-12T16:27:55.267Z,98017.28
2022-12-12T16:30:22.244Z,98010.88
2022-12-12T16:32:48.938Z,98009.13
2022-12-12T16:35:18.433Z,98012.28
2022-12-12T16:37:45.646Z,98011.81
2022-12-12T16:40:15.682Z,98018.41
2022-12-12T16:42:48.085Z,98017.34
2022-12-12T16:45:14.727Z,98017.78
2022-12-12T16:47:41.469Z,98016.44
2022-12-12T16:50:08.353Z,98012.94
2022-12-12T16:52:35.215Z,98001.75
2022-12-12T16:55:02.056Z,98012.63
2022-12-12T16:57:28.679Z,98010.97
2022-12-12T16:59:55.306Z,98016.56
2022-12-12T17:02:23.864Z,98014.72
2022-12-12T17:04:51.508Z,98006.50
2022-12-12T17:07:18.818Z,98017.56
2022-12-12T17:09:45.738Z,98022.75
2022-12-12T17:12:13.301Z,98029.72
2022-12-12T17:14:40.342Z,98032.59
2022-12-12T17:17:07.153Z,98034.38
2022-12-12T17:19:34.537Z,98035.19
2022-12-12T17:22:01.535Z,98041.09
2022-12-12T17:24:28.631Z,98041.09
2022-12-12T17:26:55.328Z,98037.78
2022-12-12T17:29:22.762Z,98039.00
2022-12-12T17:31:49.556Z,98035.88
2022-12-12T17:34:16.318Z,98033.59
2022-12-12T17:36:43.089Z,98036.59
2022-12-12T17:39:11.232Z,98040.81
2022-12-12T17:41:38.078Z,98042.19
2022-12-12T17:44:05.136Z,98041.25
2022-12-12T17:46:31.795Z,98039.47
2022-12-12T17:48:59.659Z,98037.16
2022-12-12T17:51:26.363Z,98045.88
2022-12-12T17:53:53.270Z,98044.78
2022-12-12T17:56:24.157Z,98050.91
2022-12-12T17:58:50.913Z,98049.69
2022-12-12T18:01:20.908Z,98050.53
2022-12-12T18:03:48.697Z,98051.22
2022-12-12T18:06:17.398Z,98058.44
2022-12-12T18:08:44.743Z,98064.56
2022-12-12T18:11:14.646Z,98064.16
2022-12-12T18:13:42.185Z,98066.59
2022-12-12T18:16:12.947Z,98072.31
2022-12-12T18:18:40.240Z,98067.84
2022-12-12T18:21:12.700Z,98062.66
2022-12-12T18:23:41.188Z,98054.78
2022-12-12T18:26:11.447Z,98061.72
2022-12-12T18:28:38.172Z,98061.03
2022-12-12T18:31:05.871Z,98059.81
2022-12-12T18:33:32.921Z,98067.28
2022-12-12T18:36:03.970Z,98067.56
2022-12-12T18:38:31.846Z,98062.81
2022-12-12T18:40:58.906Z,98065.78
2022-12-12T18:43:27.740Z,98066.88
2022-12-12T18:45:55.670Z,98076.88
2022-12-12T18:48:22.671Z,98079.34
2022-12-12T18:50:49.322Z,98079.75
2022-12-12T18:53:16.548Z,98086.94
2022-12-12T18:55:44.221Z,98082.88
2022-12-12T18:58:12.088Z,98077.69
2022-12-12T19:00:40.353Z,98074.56
2022-12-12T19:03:08.338Z,98075.53
2022-12-12T19:05:40.769Z,98084.13
2022-12-12T19:08:08.500Z,98090.09
2022-12-12T19:10:36.183Z,98087.50
2022-12-12T19:13:03.388Z,98090.22
2022-12-12T19:15:34.390Z,98097.97
2022-12-12T19:18:01.115Z,98094.31
2022-12-12T19:20:27.893Z,98097.84
2022-12-12T19:22:54.606Z,98094.16
2022-12-12T19:25:21.962Z,98091.31
2022-12-12T19:27:48.623Z,98091.59
2022-12-12T19:30:18.902Z,98083.84
2022-12-12T19:32:48.960Z,98086.44
2022-12-12T19:35:16.347Z,98086.25
2022-12-12T19:37:43.014Z,98082.78
2022-12-12T19:40:10.294Z,98083.94
2022-12-12T19:42:37.121Z,98083.09
2022-12-12T19:45:04.553Z,98086.72
2022-12-12T19:47:33.361Z,98095.59
2022-12-12T19:50:00.164Z,98095.44
2022-12-12T19:52:27.526Z,98093.47
2022-12-12T19:54:54.159Z,98101.50
2022-12-12T19:57:25.663Z,98101.06
2022-12-12T19:59:53.510Z,98111.88
2022-12-12T20:02:20.682Z,98110.66
2022-12-12T20:04:47.551Z,98104.41
2022-12-12T20:07:14.290Z,98099.69
2022-12-12T20:09:41.026Z,98106.59
2022-12-12T20:12:07.762Z,98106.72
2022-12-12T20:14:36.445Z,98108.84
2022-12-12T20:17:03.518Z,98108.75
2022-12-12T20:19:30.751Z,98104.97
2022-12-12T20:22:00.687Z,98108.94
2022-12-12T20:24:28.990Z,98111.41
2022-12-12T20:26:56.161Z,98108.16
2022-12-12T20:29:23.493Z,98110.69
2022-12-12T20:31:50.778Z,98103.59
2022-12-12T20:34:21.766Z,98110.56
2022-12-12T20:36:48.561Z,98109.91
2022-12-12T20:39:17.329Z,98108.53
2022-12-12T20:41:45.069Z,98108.63
2022-12-12T20:44:13.433Z,98107.53
2022-12-12T20:46:44.012Z,98110.00
2022-12-12T20:49:15.947Z,98112.53
2022-12-12T20:51:59.181Z,98110.47
2022-12-12T20:54:28.987Z,98113.03
2022-12-12T20:56:57.246Z,98112.56
2022-12-12T20:59:25.099Z,98111.81
2022-12-12T21:01:52.553Z,98113.25
2022-12-12T21:04:19.783Z,98111.50
2022-12-12T21:06:48.747Z,98114.22
2022-12-12T21:09:23.216Z,98118.88
2022-12-12T21:11:53.009Z,98113.66
2022-12-12T21:14:19.685Z,98110.50
2022-12-12T21:16:46.508Z,98106.47
2022-12-12T21:19:14.404Z,98111.47
2022-12-12T21:21:43.286Z,98118.19
2022-12-12T21:24:12.346Z,98118.06
2022-12-12T21:26:39.119Z,98121.44
2022-12-12T21:29:06.378Z,98121.56
2022-12-12T21:31:36.847Z,98124.28
2022-12-12T21:34:05.395Z,98119.53
2022-12-12T21:36:33.390Z,98123.94
2022-12-12T21:39:01.517Z,98126.06
2022-12-12T21:41:28.717Z,98126.00
2022-12-12T21:43:56.668Z,98128.41
2022-12-12T21:46:25.578Z,98130.75
2022-12-12T21:49:08.683Z,98126.53
2022-12-12T21:51:35.644Z,98120.44
2022-12-12T21:54:04.054Z,98117.75
2022-12-12T21:56:31.276Z,98115.84
2022-12-12T21:59:00.027Z,98115.03
2022-12-12T22:01:27.604Z,98120.13
2022-12-12T22:03:55.101Z,98121.03
2022-12-12T22:06:24.344Z,98112.72
2022-12-12T22:08:51.549Z,98114.09
2022-12-12T22:11:40.167Z,98115.97
2022-12-12T22:14:07.468Z,98132.41
2022-12-12T22:16:34.968Z,98122.19
2022-12-12T22:19:05.958Z,98135.47
2022-12-12T22:21:34.847Z,98125.66
2022-12-12T22:24:01.987Z,98119.31
2022-12-12T22:26:30.240Z,98120.91
2022-12-12T22:29:00.027Z,98110.50
2022-12-12T22:31:29.369Z,98115.00
2022-12-12T22:34:00.298Z,98124.97
2022-12-12T22:36:29.432Z,98122.59
2022-12-12T22:38:58.210Z,98123.41
2022-12-12T22:41:25.534Z,98122.13
2022-12-12T22:43:55.364Z,98113.50
2022-12-12T22:46:22.748Z,98110.66
2022-12-12T22:48:49.660Z,98096.84
2022-12-12T22:51:19.134Z,98105.75
2022-12-12T22:53:46.364Z,98101.66
2022-12-12T22:56:14.233Z,98106.38
2022-12-12T22:58:41.634Z,98106.84
2022-12-12T23:01:10.568Z,98104.38
2022-12-12T23:03:38.263Z,98103.34
2022-12-12T23:06:09.384Z,98095.50
2022-12-12T23:08:36.075Z,98099.34
2022-12-12T23:11:07.651Z,98093.03
2022-12-12T23:13:34.779Z,98101.81
2022-12-12T23:16:08.468Z,98102.25
2022-12-12T23:18:37.404Z,98099.03
2022-12-12T23:21:06.403Z,98091.91
2022-12-12T23:23:34.451Z,98097.38
2022-12-12T23:26:06.595Z,98092.91
2022-12-12T23:28:34.556Z,98090.81
2022-12-12T23:31:04.991Z,98083.09
2022-12-12T23:33:31.705Z,98089.75
2022-12-12T23:35:58.377Z,98082.28
2022-12-12T23:38:25.064Z,98086.59
2022-12-12T23:40:51.734Z,98084.94
2022-12-12T23:43:18.395Z,98088.81
2022-12-12T23:45:45.197Z,98086.38
2022-12-12T23:48:11.947Z,98084.72
2022-12-12T23:50:38.598Z,98090.91
2022-12-12T23:53:10.422Z,98082.28
2022-12-12T23:55:37.397Z,98086.84
2022-12-12T23:58:04.058Z,98077.34
